createdAt,value
2023-03-27T00:01:02.366Z,79.92
2023-03-27T00:03:34.521Z,79.23
2023-03-27T00:06:12.079Z,79.82
2023-03-27T00:08:46.474Z,79.08
2023-03-27T00:11:22.126Z,79.46
2023-03-27T00:13:54.883Z,79.66
2023-03-27T00:16:27.660Z,79.65
2023-03-27T00:19:00.514Z,79.35
2023-03-27T00:21:32.208Z,78.99
2023-03-27T00:24:06.201Z,78.84
2023-03-27T00:26:41.459Z,78.40
2023-03-27T00:29:13.545Z,78.05
2023-03-27T00:31:45.399Z,78.73
2023-03-27T00:34:17.100Z,78.83
2023-03-27T00:36:51.228Z,78.71
2023-03-27T00:39:23.791Z,78.37
2023-03-27T00:41:56.084Z,78.28
2023-03-27T00:44:34.919Z,78.71
2023-03-27T00:47:10.224Z,78.54
2023-03-27T00:49:42.754Z,78.90
2023-03-27T00:52:16.805Z,79.21
2023-03-27T00:54:52.186Z,78.02
2023-03-27T00:57:25.174Z,78.57
2023-03-27T01:00:00.614Z,78.39
2023-03-27T01:02:32.409Z,78.26
2023-03-27T01:05:04.861Z,79.03
2023-03-27T01:07:37.982Z,78.83
2023-03-27T01:10:12.067Z,78.83
2023-03-27T01:13:21.317Z,78.42
2023-03-27T01:16:05.731Z,78.72
2023-03-27T01:19:00.918Z,78.70
2023-03-27T01:21:51.865Z,78.36
2023-03-27T01:24:59.119Z,78.18
2023-03-27T01:27:53.934Z,79.00
2023-03-27T01:30:42.311Z,79.25
2023-03-27T01:33:50.468Z,79.42
2023-03-27T01:36:39.804Z,78.57
2023-03-27T01:39:18.851Z,79.03
2023-03-27T01:42:31.509Z,79.90
2023-03-27T01:45:10.934Z,79.57
2023-03-27T01:48:11.164Z,79.74
2023-03-27T01:50:48.699Z,78.95
2023-03-27T01:53:29.943Z,79.94
2023-03-27T01:56:10.605Z,80.13
2023-03-27T01:58:46.405Z,79.64
2023-03-27T02:01:28.314Z,79.51
2023-03-27T02:04:03.926Z,79.22
2023-03-27T02:06:44.316Z,79.05
2023-03-27T02:09:22.088Z,78.38
2023-03-27T02:12:01.816Z,78.93
2023-03-27T02:14:43.674Z,78.80
2023-03-27T02:17:19.202Z,80.00
2023-03-27T02:19:56.900Z,79.96
2023-03-27T02:22:37.590Z,79.99
2023-03-27T02:25:30.020Z,80.01
2023-03-27T02:28:19.907Z,79.14
2023-03-27T02:31:33.303Z,79.47
2023-03-27T02:34:35.427Z,78.96
2023-03-27T02:37:32.305Z,79.00
2023-03-27T02:40:40.419Z,79.62
2023-03-27T02:43:48.855Z,80.18
2023-03-27T02:46:36.763Z,79.49
2023-03-27T02:49:16.104Z,80.17
2023-03-27T02:51:54.280Z,79.78
2023-03-27T02:54:34.472Z,79.66
2023-03-27T02:57:21.818Z,79.87
2023-03-27T03:00:33.131Z,80.18
2023-03-27T03:03:44.522Z,79.61
2023-03-27T03:06:34.706Z,79.94
2023-03-27T03:09:06.747Z,79.94
2023-03-27T03:11:48.389Z,79.53
2023-03-27T03:14:25.507Z,80.28
2023-03-27T03:16:57.305Z,80.52
2023-03-27T03:19:29.086Z,81.43
2023-03-27T03:22:01.723Z,81.18
2023-03-27T03:24:42.007Z,81.39
2023-03-27T03:27:15.423Z,81.89
2023-03-27T03:30:00.774Z,81.91
2023-03-27T03:32:34.079Z,82.30
2023-03-27T03:35:08.956Z,82.02
2023-03-27T03:37:41.700Z,82.62
2023-03-27T03:40:18.875Z,82.76
2023-03-27T03:42:52.861Z,83.05
2023-03-27T03:45:29.123Z,82.97
2023-03-27T03:48:01.148Z,83.85
2023-03-27T03:50:33.071Z,83.74
2023-03-27T03:53:05.236Z,83.16
2023-03-27T03:55:37.442Z,83.50
2023-03-27T03:58:09.842Z,84.11
2023-03-27T04:00:44.546Z,83.54
2023-03-27T04:03:32.407Z,82.79
2023-03-27T04:06:05.623Z,83.02
2023-03-27T04:08:37.894Z,81.57
2023-03-27T04:11:10.268Z,79.44
2023-03-27T04:14:03.971Z,77.69
2023-03-27T04:16:41.728Z,77.16
2023-03-27T04:19:23.928Z,76.79
2023-03-27T04:22:02.580Z,77.46
2023-03-27T04:24:38.744Z,77.99
2023-03-27T04:27:13.862Z,78.39
2023-03-27T04:30:10.233Z,78.39
2023-03-27T04:33:00.282Z,78.31
2023-03-27T04:36:05.967Z,78.27
2023-03-27T04:38:48.018Z,78.56
2023-03-27T04:41:21.384Z,78.94
2023-03-27T04:43:55.800Z,78.92
2023-03-27T04:46:28.492Z,79.62
2023-03-27T04:49:10.635Z,79.22
2023-03-27T04:52:00.832Z,79.31
2023-03-27T04:54:34.628Z,79.69
2023-03-27T04:57:07.850Z,79.46
2023-03-27T04:59:39.812Z,79.52
2023-03-27T05:02:37.685Z,79.26
2023-03-27T05:05:22.094Z,80.03
2023-03-27T05:07:55.776Z,80.24
2023-03-27T05:10:29.942Z,80.60
2023-03-27T05:13:01.791Z,80.20
2023-03-27T05:15:33.781Z,80.01
2023-03-27T05:18:09.139Z,81.01
2023-03-27T05:20:43.889Z,80.92
2023-03-27T05:23:16.574Z,80.24
2023-03-27T05:25:59.913Z,80.63
2023-03-27T05:28:42.472Z,80.37
2023-03-27T05:31:14.158Z,81.03
2023-03-27T05:34:02.757Z,80.50
2023-03-27T05:36:37.553Z,80.73
2023-03-27T05:39:09.363Z,80.59
2023-03-27T05:42:01.007Z,81.29
2023-03-27T05:44:32.657Z,81.03
2023-03-27T05:47:07.380Z,81.45
2023-03-27T05:49:41.250Z,81.35
2023-03-27T05:52:16.936Z,81.38
2023-03-27T05:54:50.235Z,81.13
2023-03-27T05:57:22.023Z,80.35
2023-03-27T06:00:00.271Z,81.47
2023-03-27T06:02:32.082Z,80.39
2023-03-27T06:05:10.895Z,81.05
2023-03-27T06:07:45.335Z,79.73
2023-03-27T06:10:18.306Z,81.02
2023-03-27T06:13:16.342Z,80.53
2023-03-27T06:16:01.469Z,80.71
2023-03-27T06:18:51.723Z,80.84
2023-03-27T06:21:24.779Z,80.87
2023-03-27T06:24:02.705Z,79.83
2023-03-27T06:26:34.763Z,79.78
2023-03-27T06:29:08.769Z,79.55
2023-03-27T06:31:44.793Z,78.70
2023-03-27T06:34:27.787Z,78.25
2023-03-27T06:37:37.232Z,78.62
2023-03-27T06:40:10.421Z,78.63
2023-03-27T06:42:52.147Z,77.35
2023-03-27T06:45:46.218Z,76.13
2023-03-27T06:48:22.076Z,76.11
2023-03-27T06:51:00.506Z,76.40
2023-03-27T06:53:37.902Z,75.55
2023-03-27T06:56:10.316Z,74.60
2023-03-27T06:59:01.300Z,75.20
2023-03-27T07:01:33.381Z,74.53
2023-03-27T07:04:23.794Z,74.66
2023-03-27T07:07:04.333Z,74.78
2023-03-27T07:09:40.912Z,72.71
2023-03-27T07:12:13.989Z,72.99
2023-03-27T07:14:48.364Z,72.73
2023-03-27T07:17:20.302Z,71.36
2023-03-27T07:19:56.823Z,70.64
2023-03-27T07:22:32.092Z,70.35
2023-03-27T07:25:12.236Z,70.26
2023-03-27T07:27:47.241Z,69.02
2023-03-27T07:30:19.419Z,69.37
2023-03-27T07:32:51.598Z,69.55
2023-03-27T07:35:25.625Z,68.12
2023-03-27T07:38:35.983Z,68.77
2023-03-27T07:41:19.669Z,68.42
2023-03-27T07:44:14.637Z,67.48
2023-03-27T07:46:58.693Z,68.25
2023-03-27T07:49:40.333Z,67.64
2023-03-27T07:52:21.798Z,66.60
2023-03-27T07:55:03.310Z,66.35
2023-03-27T07:57:59.810Z,66.45
2023-03-27T08:00:35.206Z,65.95
2023-03-27T08:03:19.679Z,65.22
2023-03-27T08:05:58.285Z,65.64
2023-03-27T08:08:32.890Z,65.39
2023-03-27T08:11:09.655Z,64.56
2023-03-27T08:13:45.801Z,65.23
2023-03-27T08:16:19.316Z,64.93
2023-03-27T08:18:51.227Z,64.41
2023-03-27T08:21:23.875Z,64.00
2023-03-27T08:23:57.795Z,63.38
2023-03-27T08:26:40.487Z,63.48
2023-03-27T08:29:19.723Z,63.27
2023-03-27T08:31:52.744Z,63.57
2023-03-27T08:34:24.472Z,62.18
2023-03-27T08:36:58.000Z,62.09
2023-03-27T08:39:39.797Z,63.16
2023-03-27T08:42:19.211Z,62.45
2023-03-27T08:44:57.786Z,62.47
2023-03-27T08:47:50.514Z,63.04
2023-03-27T08:50:36.299Z,61.46
2023-03-27T08:53:35.989Z,60.57
2023-03-27T08:56:13.920Z,60.89
2023-03-27T08:58:47.050Z,60.48
2023-03-27T09:01:49.342Z,58.92
2023-03-27T09:04:37.585Z,59.63
2023-03-27T09:07:19.006Z,59.12
2023-03-27T09:10:32.079Z,58.73
2023-03-27T09:13:20.898Z,58.14
2023-03-27T09:16:10.985Z,57.20
2023-03-27T09:18:56.306Z,57.35
2023-03-27T09:21:58.094Z,57.29
2023-03-27T09:24:54.233Z,56.63
2023-03-27T09:27:49.456Z,55.16
2023-03-27T09:30:33.800Z,55.98
2023-03-27T09:33:12.356Z,54.18
2023-03-27T09:35:46.698Z,54.84
2023-03-27T09:38:33.214Z,50.43
2023-03-27T09:41:13.079Z,53.50
2023-03-27T09:44:15.020Z,53.37
2023-03-27T09:46:52.336Z,51.80
2023-03-27T09:49:27.284Z,48.03
2023-03-27T09:52:02.791Z,44.73
2023-03-27T09:55:31.315Z,43.63
2023-03-27T09:58:35.455Z,44.27
2023-03-27T10:01:19.863Z,41.17
2023-03-27T10:03:59.701Z,42.15
2023-03-27T10:06:51.460Z,42.27
2023-03-27T10:09:34.867Z,37.29
2023-03-27T10:12:19.334Z,40.27
2023-03-27T10:14:53.151Z,40.15
2023-03-27T10:17:36.752Z,38.37
2023-03-27T10:20:18.713Z,38.18
2023-03-27T10:22:56.646Z,38.77
2023-03-27T10:25:38.876Z,35.77
2023-03-27T10:28:34.591Z,36.48
2023-03-27T10:31:36.400Z,36.78
2023-03-27T10:34:29.864Z,36.75
2023-03-27T10:37:24.335Z,36.87
2023-03-27T10:40:07.549Z,38.05
2023-03-27T10:42:43.992Z,38.24
2023-03-27T10:45:21.329Z,38.05
2023-03-27T10:47:59.358Z,39.13
2023-03-27T10:50:53.271Z,38.83
2023-03-27T10:53:55.009Z,40.39
2023-03-27T10:56:52.959Z,38.93
2023-03-27T10:59:55.097Z,39.38
2023-03-27T11:02:42.372Z,37.78
2023-03-27T11:05:19.395Z,38.44
2023-03-27T11:08:15.289Z,37.34
2023-03-27T11:10:49.488Z,36.97
2023-03-27T11:13:37.548Z,37.21
2023-03-27T11:16:37.258Z,38.30
2023-03-27T11:19:31.466Z,37.29
2023-03-27T11:22:33.042Z,39.26
2023-03-27T11:25:26.444Z,39.46
2023-03-27T11:28:10.962Z,38.94
2023-03-27T11:30:51.537Z,39.17
2023-03-27T11:33:29.622Z,39.24
2023-03-27T11:36:14.385Z,39.17
2023-03-27T11:39:15.402Z,40.72
2023-03-27T11:41:54.609Z,39.60
2023-03-27T11:44:30.458Z,41.44
2023-03-27T11:47:45.259Z,42.95
2023-03-27T11:50:22.871Z,44.70
2023-03-27T11:53:13.096Z,43.64
2023-03-27T11:56:45.539Z,43.85
2023-03-27T11:59:42.945Z,44.45
2023-03-27T12:02:37.783Z,45.10
2023-03-27T12:05:28.205Z,45.59
2023-03-27T12:08:10.159Z,45.14
2023-03-27T12:10:50.563Z,45.25
2023-03-27T12:13:58.137Z,47.69
2023-03-27T12:16:56.297Z,48.75
2023-03-27T12:19:46.805Z,47.58
2023-03-27T12:23:01.583Z,49.08
2023-03-27T12:25:56.586Z,48.69
2023-03-27T12:28:55.640Z,48.88
2023-03-27T12:32:22.048Z,49.63
2023-03-27T12:35:03.534Z,49.33
2023-03-27T12:37:48.788Z,47.58
2023-03-27T12:40:41.098Z,45.78
2023-03-27T12:43:27.771Z,44.18
2023-03-27T12:46:26.296Z,43.32
2023-03-27T12:49:00.870Z,41.24
2023-03-27T12:51:53.687Z,40.03
2023-03-27T12:55:06.504Z,40.50
2023-03-27T12:58:10.889Z,39.87
2023-03-27T13:01:06.314Z,40.58
2023-03-27T13:04:01.484Z,40.25
2023-03-27T13:07:11.158Z,40.12
2023-03-27T13:10:47.099Z,40.35
2023-03-27T13:13:47.888Z,39.07
2023-03-27T13:16:45.257Z,39.54
2023-03-27T13:19:38.577Z,37.21
2023-03-27T13:22:24.479Z,38.41
2023-03-27T13:25:41.531Z,38.26
2023-03-27T13:28:28.915Z,39.08
2023-03-27T13:31:59.917Z,38.05
2023-03-27T13:35:17.104Z,38.52
2023-03-27T13:37:48.748Z,38.68
2023-03-27T13:40:36.806Z,39.94
2023-03-27T13:43:30.670Z,40.32
2023-03-27T13:46:29.289Z,40.74
2023-03-27T13:50:04.930Z,40.85
2023-03-27T13:53:07.882Z,41.94
2023-03-27T13:56:15.615Z,42.17
2023-03-27T13:59:47.957Z,41.26
2023-03-27T14:02:49.811Z,42.64
2023-03-27T14:05:46.468Z,42.97
2023-03-27T14:08:32.601Z,42.96
2023-03-27T14:11:38.018Z,42.11
2023-03-27T14:14:18.541Z,41.16
2023-03-27T14:17:22.220Z,42.40
2023-03-27T14:20:17.029Z,41.30
2023-03-27T14:22:54.398Z,41.01
2023-03-27T14:25:36.504Z,39.90
2023-03-27T14:28:51.683Z,39.98
2023-03-27T14:31:35.830Z,40.07
2023-03-27T14:34:25.582Z,39.46
2023-03-27T14:37:30.876Z,40.23
2023-03-27T14:40:28.136Z,40.34
2023-03-27T14:43:05.281Z,40.26
2023-03-27T14:45:40.812Z,40.42
2023-03-27T14:48:21.110Z,41.30
2023-03-27T14:51:03.266Z,41.15
2023-03-27T14:53:48.149Z,40.89
2023-03-27T14:56:29.527Z,40.86
2023-03-27T14:59:42.925Z,40.46
2023-03-27T15:02:20.653Z,41.93
2023-03-27T15:05:01.137Z,41.54
2023-03-27T15:07:35.496Z,41.99
2023-03-27T15:10:37.250Z,40.90
2023-03-27T15:13:12.026Z,40.61
2023-03-27T15:15:59.103Z,41.35
2023-03-27T15:18:58.883Z,42.37
2023-03-27T15:21:50.925Z,42.87
2023-03-27T15:24:40.721Z,44.17
2023-03-27T15:27:20.086Z,46.23
2023-03-27T15:29:57.773Z,46.84
2023-03-27T15:32:42.461Z,47.64
2023-03-27T15:35:21.335Z,48.21
2023-03-27T15:37:54.118Z,48.33
2023-03-27T15:40:38.163Z,48.01
2023-03-27T15:43:13.782Z,48.26
2023-03-27T15:46:04.479Z,46.78
2023-03-27T15:48:40.701Z,46.53
2023-03-27T15:51:20.415Z,46.92
2023-03-27T15:53:55.824Z,46.68
2023-03-27T15:56:43.829Z,46.71
2023-03-27T15:59:16.548Z,47.07
2023-03-27T16:01:54.176Z,47.40
2023-03-27T16:04:39.151Z,47.97
2023-03-27T16:07:25.553Z,48.30
2023-03-27T16:10:05.131Z,49.02
2023-03-27T16:12:40.759Z,49.40
2023-03-27T16:15:44.914Z,50.14
2023-03-27T16:18:25.047Z,50.44
2023-03-27T16:21:07.923Z,50.86
2023-03-27T16:23:40.756Z,51.06
2023-03-27T16:26:16.924Z,51.82
2023-03-27T16:28:52.720Z,51.91
2023-03-27T16:31:24.458Z,51.70
2023-03-27T16:33:58.333Z,51.94
2023-03-27T16:36:32.692Z,53.12
2023-03-27T16:39:04.894Z,56.76
2023-03-27T16:41:38.346Z,56.55
2023-03-27T16:44:10.020Z,58.18
2023-03-27T16:46:41.765Z,61.68
2023-03-27T16:49:13.516Z,61.61
2023-03-27T16:51:45.401Z,60.91
2023-03-27T16:54:17.135Z,61.76
2023-03-27T16:56:48.864Z,61.18
2023-03-27T16:59:20.741Z,62.52
2023-03-27T17:01:52.446Z,62.95
2023-03-27T17:04:24.589Z,64.61
2023-03-27T17:06:59.212Z,65.15
2023-03-27T17:09:32.357Z,66.53
2023-03-27T17:12:04.577Z,66.31
2023-03-27T17:14:36.371Z,66.19
2023-03-27T17:17:08.080Z,67.11
2023-03-27T17:19:42.466Z,68.14
2023-03-27T17:22:15.448Z,68.37
2023-03-27T17:24:56.236Z,69.31
2023-03-27T17:27:28.818Z,69.29
2023-03-27T19:15:46.832Z,65.88
2023-03-27T19:24:53.098Z,65.06
2023-03-27T19:27:25.802Z,64.51
2023-03-27T19:30:01.267Z,64.28
2023-03-27T19:32:33.158Z,64.67
2023-03-27T19:35:07.361Z,64.20
2023-03-27T19:37:39.399Z,63.64
2023-03-27T19:40:13.194Z,62.50
2023-03-27T19:42:45.423Z,61.99
2023-03-27T19:45:53.115Z,61.98
2023-03-27T19:48:30.782Z,61.84
2023-03-27T19:53:14.717Z,62.03
2023-03-27T19:55:46.495Z,61.71
2023-03-27T19:58:18.266Z,61.02
2023-03-27T20:00:52.585Z,61.01
2023-03-27T20:03:24.452Z,60.16
2023-03-27T20:06:07.572Z,60.40
2023-03-27T20:08:40.608Z,60.06
2023-03-27T20:11:12.427Z,60.24
2023-03-27T20:13:55.511Z,60.66
2023-03-27T20:16:29.340Z,62.76
2023-03-27T20:19:04.511Z,61.33
2023-03-27T20:21:43.525Z,60.00
2023-03-27T20:24:18.699Z,59.37
2023-03-27T20:27:02.193Z,59.18
2023-03-27T20:29:33.912Z,59.52
2023-03-27T20:32:07.595Z,59.63
2023-03-27T20:34:40.626Z,60.15
2023-03-27T20:37:17.114Z,59.90
2023-03-27T20:40:12.969Z,60.29
2023-03-27T20:42:49.315Z,60.21
2023-03-27T20:45:26.701Z,60.19
2023-03-27T20:48:03.423Z,59.66
2023-03-27T20:50:36.661Z,59.91
2023-03-27T20:53:10.434Z,59.69
2023-03-27T20:55:49.875Z,59.83
2023-03-27T20:58:37.935Z,59.82
2023-03-27T21:01:10.492Z,60.19
2023-03-27T21:03:46.317Z,60.42
2023-03-27T21:06:20.569Z,60.42
2023-03-27T21:08:52.331Z,61.47
2023-03-27T21:11:24.260Z,61.70
2023-03-27T21:13:56.186Z,60.71
2023-03-27T21:16:28.552Z,61.08
2023-03-27T21:19:00.432Z,61.29
2023-03-27T21:21:39.162Z,61.43
2023-03-27T21:24:13.756Z,61.81
2023-03-27T21:26:45.786Z,62.05
2023-03-27T21:29:17.507Z,62.60
2023-03-27T21:34:22.122Z,61.92
2023-03-27T21:36:53.861Z,62.41
2023-03-27T21:39:25.807Z,62.80
2023-03-27T21:41:57.539Z,61.94
2023-03-27T21:44:29.355Z,62.94
2023-03-27T21:47:03.858Z,63.04
2023-03-27T21:49:38.621Z,62.78
2023-03-27T21:52:10.252Z,62.95
2023-03-27T21:54:49.897Z,62.65
2023-03-27T21:57:28.174Z,62.81
2023-03-27T22:00:00.341Z,63.15
2023-03-27T22:02:34.976Z,62.84
2023-03-27T22:05:07.608Z,62.45
2023-03-27T22:07:39.358Z,62.34
2023-03-27T22:10:12.150Z,62.79
2023-03-27T22:12:43.879Z,62.88
2023-03-27T22:15:15.890Z,63.14
2023-03-27T22:17:53.653Z,63.16
2023-03-27T22:20:32.013Z,63.60
2023-03-27T22:23:03.712Z,63.53
2023-03-27T22:25:35.858Z,63.01
2023-03-27T22:28:07.582Z,62.61
2023-03-27T22:30:39.302Z,62.67
2023-03-27T22:33:11.052Z,63.32
2023-03-27T22:35:48.473Z,63.59
2023-03-27T22:38:20.206Z,63.16
2023-03-27T22:40:51.964Z,63.24
2023-03-27T22:43:24.446Z,63.14
2023-03-27T22:45:56.490Z,63.39
2023-03-27T22:48:28.286Z,63.59
2023-03-27T22:51:00.589Z,63.61
2023-03-27T22:53:33.216Z,63.39
2023-03-27T22:56:07.052Z,63.34
2023-03-27T22:58:42.419Z,63.86
2023-03-27T23:01:13.926Z,63.85
2023-03-27T23:03:45.974Z,63.96
2023-03-27T23:06:20.355Z,63.76
2023-03-27T23:08:52.681Z,63.67
2023-03-27T23:11:24.443Z,63.39
2023-03-27T23:13:56.153Z,63.64
2023-03-27T23:16:30.809Z,62.95
2023-03-27T23:19:02.983Z,63.43
2023-03-27T23:21:34.740Z,63.07
2023-03-27T23:24:07.974Z,62.99
2023-03-27T23:26:40.757Z,62.87
2023-03-27T23:29:12.685Z,63.10
2023-03-27T23:31:44.395Z,62.48
2023-03-27T23:34:16.126Z,62.98
2023-03-27T23:36:47.872Z,63.02
2023-03-27T23:39:19.547Z,62.95
2023-03-27T23:41:55.345Z,63.11
2023-03-27T23:44:30.278Z,62.81
2023-03-27T23:47:02.079Z,62.61
2023-03-27T23:49:34.099Z,62.53
2023-03-27T23:52:05.982Z,62.98
2023-03-27T23:54:37.933Z,62.35
2023-03-27T23:57:10.752Z,62.83
2023-03-27T23:59:42.524Z,62.51
